Time;durP1;ratioP1;P1;durP2;ratioP2;P2;SDS_P1;SDS_P2;PMS_P1;PMS_P2;Temp;Humidity;BMP_temperature;BMP_pressure;BME280_temperature;BME280_humidity;BME280_pressure;Samples;Min_cycle;Max_cycle;Signal;HPM_P1;HPM_P2
2023/06/05 00:01:20;;;;;;;18.52;10.15;;;14.00;83.50;;;;;;5039373;28;20051;-73
2023/06/05 00:03:46;;;;;;;18.80;10.15;;;14.00;83.40;;;;;;5042710;28;20037;-73
2023/06/05 00:06:12;;;;;;;17.83;10.05;;;14.00;83.40;;;;;;5039083;28;20053;-73
2023/06/05 00:08:37;;;;;;;18.67;10.27;;;14.00;83.30;;;;;;5040894;28;20037;-73
2023/06/05 00:11:03;;;;;;;19.90;10.60;;;13.90;83.50;;;;;;5043911;28;20479;-74
2023/06/05 00:13:29;;;;;;;15.27;9.65;;;13.90;83.50;;;;;;5044868;28;20378;-73
2023/06/05 00:15:56;;;;;;;15.50;9.88;;;13.90;83.50;;;;;;5040328;28;20025;-74
2023/06/05 00:18:21;;;;;;;18.10;10.55;;;13.90;83.40;;;;;;5042450;28;20515;-76
2023/06/05 00:20:47;;;;;;;18.10;9.80;;;13.80;83.40;;;;;;5040641;28;20025;-74
2023/06/05 00:23:13;;;;;;;19.15;9.80;;;13.80;83.40;;;;;;5040433;28;20025;-74
2023/06/05 00:25:39;;;;;;;16.23;10.27;;;13.80;83.50;;;;;;5043511;28;20100;-74
2023/06/05 00:28:05;;;;;;;15.70;9.15;;;13.70;83.50;;;;;;5034911;28;20029;-73
2023/06/05 00:30:30;;;;;;;17.08;9.57;;;13.70;83.50;;;;;;5035667;28;20136;-74
2023/06/05 00:32:56;;;;;;;17.02;9.60;;;13.70;83.40;;;;;;5034614;28;20037;-73
2023/06/05 00:35:22;;;;;;;20.45;9.52;;;13.60;83.30;;;;;;5035127;28;20028;-73
2023/06/05 00:37:48;;;;;;;13.63;8.85;;;13.60;83.30;;;;;;5039311;28;20119;-73
2023/06/05 00:40:14;;;;;;;16.05;9.27;;;13.60;83.30;;;;;;5038411;28;20113;-73
2023/06/05 00:42:40;;;;;;;18.40;8.68;;;13.60;83.20;;;;;;5030922;28;20076;-73
2023/06/05 00:45:06;;;;;;;16.20;8.98;;;13.60;83.20;;;;;;5036760;28;20894;-73
2023/06/05 00:47:33;;;;;;;18.13;8.80;;;13.60;83.10;;;;;;5038830;28;20032;-74
2023/06/05 00:50:00;;;;;;;16.60;9.30;;;13.60;83.20;;;;;;5042646;28;20021;-73
2023/06/05 00:52:27;;;;;;;16.15;10.02;;;13.60;83.30;;;;;;5042096;28;20036;-74
2023/06/05 00:54:53;;;;;;;15.38;10.50;;;13.50;83.40;;;;;;5043836;28;20475;-73
2023/06/05 00:57:20;;;;;;;18.48;9.55;;;13.50;83.40;;;;;;5042057;28;20033;-74
2023/06/05 00:59:46;;;;;;;15.50;9.88;;;13.50;83.40;;;;;;5042053;28;20021;-74
2023/06/05 01:02:16;;;;;;;15.30;9.40;;;13.40;83.60;;;;;;5035029;28;20037;-73
2023/06/05 01:04:43;;;;;;;15.73;9.07;;;13.40;83.40;;;;;;5039968;28;20043;-74
2023/06/05 01:07:10;;;;;;;17.58;10.15;;;13.40;83.60;;;;;;5035646;28;20157;-74
2023/06/05 01:09:37;;;;;;;15.55;10.07;;;13.30;83.70;;;;;;5035218;28;20021;-74
2023/06/05 01:12:20;;;;;;;16.70;9.35;;;13.30;83.70;;;;;;5040832;28;20029;-73
2023/06/05 01:14:49;;;;;;;14.02;9.57;;;13.30;83.60;;;;;;5040050;28;20476;-74
2023/06/05 01:17:20;;;;;;;13.13;9.85;;;13.20;83.60;;;;;;5042824;28;20056;-74
2023/06/05 01:19:46;;;;;;;14.10;9.15;;;13.20;83.70;;;;;;5044289;28;20098;-73
2023/06/05 01:22:15;;;;;;;17.52;10.25;;;13.20;83.60;;;;;;5036994;28;20482;-73
2023/06/05 01:24:41;;;;;;;16.20;10.02;;;13.20;83.60;;;;;;5041188;28;20064;-74
2023/06/05 01:28:06;;;;;;;13.98;9.23;;;13.10;83.60;;;;;;5038096;28;20088;-74
2023/06/05 01:30:44;;;;;;;17.65;9.68;;;13.10;83.70;;;;;;5023190;28;20041;-73
2023/06/05 01:33:24;;;;;;;15.68;9.63;;;13.10;83.60;;;;;;5045368;28;20128;-74
2023/06/05 01:35:53;;;;;;;17.27;10.38;;;13.10;83.60;;;;;;5046204;28;20463;-73
2023/06/05 01:38:20;;;;;;;14.50;8.93;;;13.10;83.70;;;;;;5047494;28;20057;-74
2023/06/05 01:40:47;;;;;;;16.10;10.30;;;13.00;83.70;;;;;;5047826;28;20408;-74
2023/06/05 01:43:13;;;;;;;17.38;11.07;;;13.00;83.60;;;;;;5040004;28;20462;-74
2023/06/05 01:45:43;;;;;;;17.05;10.45;;;12.90;83.80;;;;;;5046013;28;20028;-74
2023/06/05 01:48:12;;;;;;;17.30;9.90;;;12.90;83.90;;;;;;5037656;28;20143;-74
2023/06/05 01:50:38;;;;;;;19.27;10.13;;;12.90;84.00;;;;;;5035789;28;20083;-73
2023/06/05 01:53:05;;;;;;;15.13;10.18;;;12.90;84.00;;;;;;5037801;28;20037;-73
2023/06/05 01:55:31;;;;;;;14.80;10.23;;;12.90;84.00;;;;;;5038936;28;20216;-74
2023/06/05 01:57:57;;;;;;;14.52;10.65;;;12.80;84.10;;;;;;5044959;28;20477;-74
2023/06/05 02:00:24;;;;;;;20.77;12.82;;;12.80;84.20;;;;;;5034011;28;20024;-73
2023/06/05 02:02:50;;;;;;;20.35;13.07;;;12.80;84.40;;;;;;5038497;28;20032;-74
2023/06/05 02:05:19;;;;;;;19.35;11.73;;;12.70;84.30;;;;;;5041603;28;20029;-73
2023/06/05 02:07:53;;;;;;;19.55;12.80;;;12.70;84.60;;;;;;5042838;28;20036;-74
2023/06/05 02:10:19;;;;;;;20.33;14.15;;;12.70;84.70;;;;;;5044370;28;20020;-74
2023/06/05 02:12:46;;;;;;;22.23;15.25;;;12.70;84.80;;;;;;5040524;28;20040;-74
2023/06/05 02:15:13;;;;;;;18.92;13.68;;;12.60;84.80;;;;;;5046340;28;20029;-73
2023/06/05 02:17:44;;;;;;;18.70;15.40;;;12.60;85.00;;;;;;5044915;28;20090;-73
2023/06/05 02:20:17;;;;;;;20.70;16.13;;;12.60;85.10;;;;;;5037582;28;20028;-73
2023/06/05 02:22:44;;;;;;;23.17;14.80;;;12.60;85.00;;;;;;5040963;28;20369;-74
2023/06/05 02:25:13;;;;;;;20.52;15.85;;;12.60;85.20;;;;;;5046597;28;20359;-73
2023/06/05 02:27:39;;;;;;;22.00;16.40;;;12.60;85.30;;;;;;5044421;28;20022;-74
2023/06/05 02:30:06;;;;;;;22.35;16.95;;;12.50;85.30;;;;;;5046362;28;20029;-74
2023/06/05 02:32:32;;;;;;;23.02;16.30;;;12.50;85.60;;;;;;5037377;28;20445;-74
2023/06/05 02:34:58;;;;;;;23.35;17.30;;;12.50;85.60;;;;;;5039696;28;20540;-73
2023/06/05 02:37:26;;;;;;;24.08;17.85;;;12.50;85.70;;;;;;5045422;28;20033;-73
2023/06/05 02:39:52;;;;;;;23.45;16.65;;;12.50;85.70;;;;;;5045202;28;20021;-73
2023/06/05 02:42:19;;;;;;;26.27;18.25;;;12.40;85.90;;;;;;5041997;28;20029;-73
2023/06/05 02:44:46;;;;;;;26.48;18.75;;;12.40;85.80;;;;;;5038929;28;20032;-74
2023/06/05 02:47:12;;;;;;;26.83;18.10;;;12.50;85.80;;;;;;5038272;28;20123;-74
2023/06/05 02:49:38;;;;;;;25.13;18.45;;;12.40;85.90;;;;;;5040273;28;20067;-74
2023/06/05 02:52:05;;;;;;;29.50;19.90;;;12.40;86.00;;;;;;5038057;28;20080;-73
2023/06/05 02:54:31;;;;;;;24.15;17.50;;;12.40;86.00;;;;;;5037736;28;20128;-74
2023/06/05 02:57:00;;;;;;;24.73;17.65;;;12.40;86.20;;;;;;5040242;28;20545;-74
2023/06/05 02:59:27;;;;;;;24.92;18.45;;;12.40;86.20;;;;;;5035401;28;20465;-73
2023/06/05 03:01:53;;;;;;;27.13;17.83;;;12.30;86.50;;;;;;5039749;28;20029;-74
2023/06/05 03:04:21;;;;;;;25.40;18.60;;;12.30;86.60;;;;;;5045000;28;20278;-72
2023/06/05 03:06:53;;;;;;;24.40;18.48;;;12.20;86.80;;;;;;5045524;28;20036;-73
2023/06/05 03:09:19;;;;;;;24.63;18.52;;;12.20;86.90;;;;;;5046565;28;20057;-73
2023/06/05 03:11:44;;;;;;;27.33;18.88;;;12.20;86.90;;;;;;5043584;28;20102;-72
2023/06/05 03:14:10;;;;;;;26.42;19.35;;;12.20;87.20;;;;;;5035705;28;20057;-73
2023/06/05 03:16:43;;;;;;;27.95;19.67;;;12.20;87.00;;;;;;5034360;28;20416;-74
2023/06/05 03:19:10;;;;;;;23.50;18.30;;;12.20;87.00;;;;;;5033402;28;20029;-74
2023/06/05 03:21:37;;;;;;;25.33;18.98;;;12.20;87.20;;;;;;5037150;28;20037;-73
2023/06/05 03:24:05;;;;;;;26.77;19.23;;;12.20;87.20;;;;;;5044853;28;20033;-73
2023/06/05 03:26:32;;;;;;;28.10;19.27;;;12.20;87.30;;;;;;5040496;28;20083;-73
2023/06/05 03:28:58;;;;;;;27.60;20.52;;;12.20;87.30;;;;;;5045305;28;20021;-74
2023/06/05 03:31:24;;;;;;;25.20;18.95;;;12.20;87.50;;;;;;5039205;28;20037;-74
2023/06/05 03:33:51;;;;;;;26.27;20.38;;;12.10;87.40;;;;;;5044806;28;20034;-73
2023/06/05 03:36:17;;;;;;;27.35;19.55;;;12.10;87.50;;;;;;5035908;28;20026;-73
2023/06/05 03:38:43;;;;;;;29.27;20.50;;;12.10;87.70;;;;;;5040757;28;20017;-73
2023/06/05 03:41:09;;;;;;;26.55;20.33;;;12.10;87.80;;;;;;5041616;28;20431;-73
2023/06/05 03:43:36;;;;;;;30.75;21.13;;;12.10;88.00;;;;;;5043598;28;20479;-73
2023/06/05 03:46:02;;;;;;;28.05;20.00;;;12.10;88.00;;;;;;5043038;28;20029;-73
2023/06/05 03:48:27;;;;;;;29.95;20.42;;;12.10;88.00;;;;;;5041069;28;20093;-74
2023/06/05 03:50:55;;;;;;;27.40;20.45;;;12.00;87.90;;;;;;5044293;28;20396;-73
2023/06/05 03:53:22;;;;;;;31.80;21.27;;;12.10;88.10;;;;;;5041247;28;20029;-73
2023/06/05 03:55:49;;;;;;;26.88;19.52;;;12.10;88.00;;;;;;5043499;28;20108;-73
2023/06/05 03:58:16;;;;;;;26.75;19.48;;;12.10;87.90;;;;;;5041662;28;20028;-73
2023/06/05 04:00:43;;;;;;;27.83;18.90;;;12.20;87.80;;;;;;5043303;28;20028;-73
2023/06/05 04:03:10;;;;;;;27.35;19.40;;;12.20;87.70;;;;;;5040113;28;20045;-73
2023/06/05 04:05:36;;;;;;;25.25;17.55;;;12.20;87.90;;;;;;5037157;28;20124;-73
2023/06/05 04:08:03;;;;;;;26.17;18.98;;;12.20;87.70;;;;;;5039087;28;20556;-73
2023/06/05 04:10:29;;;;;;;26.35;18.65;;;12.20;87.70;;;;;;5039535;28;20021;-73
2023/06/05 04:12:55;;;;;;;27.05;19.60;;;12.30;87.70;;;;;;5037219;28;20098;-74
2023/06/05 04:15:22;;;;;;;27.45;19.08;;;12.30;87.60;;;;;;5040147;28;20373;-73
2023/06/05 04:17:48;;;;;;;23.55;17.35;;;12.30;87.60;;;;;;5029812;28;20033;-73
2023/06/05 04:20:14;;;;;;;22.38;17.00;;;12.30;87.50;;;;;;5043618;28;20374;-73
2023/06/05 04:22:41;;;;;;;22.70;17.23;;;12.30;87.70;;;;;;5043232;28;20032;-73
2023/06/05 04:25:08;;;;;;;26.80;18.67;;;12.30;87.60;;;;;;5044376;28;20060;-73
2023/06/05 04:27:33;;;;;;;25.95;18.17;;;12.30;87.60;;;;;;5041139;28;20520;-73
2023/06/05 04:29:59;;;;;;;24.80;17.60;;;12.40;87.40;;;;;;5045038;28;20025;-73
2023/06/05 04:32:25;;;;;;;25.30;16.67;;;12.40;87.50;;;;;;5040820;28;20789;-73
2023/06/05 04:34:52;;;;;;;23.10;16.58;;;12.40;87.30;;;;;;5034765;28;20351;-73
2023/06/05 04:37:18;;;;;;;23.35;16.45;;;12.40;87.40;;;;;;5041102;28;20068;-73
2023/06/05 04:39:43;;;;;;;22.63;16.70;;;12.40;87.40;;;;;;5032502;28;20264;-73
2023/06/05 04:42:09;;;;;;;26.92;16.75;;;12.60;87.40;;;;;;5029846;28;20029;-73
2023/06/05 04:44:35;;;;;;;21.95;16.02;;;12.60;87.30;;;;;;5034854;28;20021;-73
2023/06/05 04:47:01;;;;;;;20.88;15.82;;;12.60;87.10;;;;;;5030396;28;20032;-73
2023/06/05 04:49:28;;;;;;;24.88;16.70;;;12.60;87.00;;;;;;5039414;28;20055;-73
2023/06/05 04:51:56;;;;;;;20.70;14.57;;;12.60;86.70;;;;;;5042177;28;20116;-73
2023/06/05 04:54:22;;;;;;;21.83;16.02;;;12.70;86.60;;;;;;5039182;28;20024;-73
2023/06/05 04:56:49;;;;;;;20.52;14.90;;;12.60;86.70;;;;;;5035827;28;20035;-73
2023/06/05 04:59:15;;;;;;;23.40;16.00;;;12.60;86.60;;;;;;5037845;28;20533;-73
2023/06/05 05:01:41;;;;;;;22.55;15.52;;;12.60;86.50;;;;;;5038058;28;20116;-73
2023/06/05 05:04:06;;;;;;;21.27;14.75;;;12.70;86.60;;;;;;5036205;28;20041;-73
2023/06/05 05:06:33;;;;;;;23.00;14.60;;;12.80;86.10;;;;;;5040800;28;20029;-73
2023/06/05 05:08:59;;;;;;;22.00;14.07;;;12.80;85.70;;;;;;5043955;28;20100;-73
2023/06/05 05:11:26;;;;;;;22.98;13.77;;;13.20;85.40;;;;;;5042002;28;20033;-73
2023/06/05 05:13:51;;;;;;;18.23;11.88;;;14.00;83.50;;;;;;5040553;28;20045;-73
2023/06/05 05:16:17;;;;;;;17.83;11.30;;;14.90;81.00;;;;;;5037041;28;20118;-73
2023/06/05 05:18:44;;;;;;;16.70;10.95;;;15.60;76.30;;;;;;5036699;28;20513;-73
2023/06/05 05:21:10;;;;;;;15.93;10.95;;;16.10;74.50;;;;;;5034610;28;20162;-73
2023/06/05 05:23:35;;;;;;;15.23;10.88;;;16.40;72.50;;;;;;5039067;28;21155;-73
2023/06/05 05:26:02;;;;;;;15.15;10.10;;;17.00;71.20;;;;;;5037422;28;20753;-73
2023/06/05 05:28:28;;;;;;;15.07;10.48;;;16.80;70.70;;;;;;5033801;28;20028;-73
2023/06/05 05:30:56;;;;;;;15.95;9.43;;;16.80;71.50;;;;;;5038338;28;20468;-73
2023/06/05 05:33:22;;;;;;;15.57;9.38;;;17.10;69.40;;;;;;5042699;28;20154;-73
2023/06/05 05:35:48;;;;;;;16.05;9.98;;;17.30;68.00;;;;;;5040139;28;20433;-72
2023/06/05 05:38:14;;;;;;;17.92;9.90;;;17.00;69.40;;;;;;5029394;28;20018;-74
2023/06/05 05:40:40;;;;;;;15.52;10.13;;;16.60;70.90;;;;;;5036893;28;20109;-73
2023/06/05 05:43:05;;;;;;;13.32;9.35;;;16.90;70.30;;;;;;5037058;28;20033;-73
2023/06/05 05:45:31;;;;;;;15.68;9.88;;;17.10;68.70;;;;;;5043650;28;20032;-73
2023/06/05 05:47:57;;;;;;;16.48;9.70;;;16.90;69.40;;;;;;5041960;28;20029;-73
2023/06/05 05:50:22;;;;;;;14.63;9.85;;;17.00;69.20;;;;;;5044356;28;20021;-73
2023/06/05 05:52:50;;;;;;;15.38;10.82;;;16.70;69.70;;;;;;5030286;28;20030;-74
2023/06/05 05:55:16;;;;;;;19.83;11.30;;;16.30;71.00;;;;;;5032239;28;20545;-73
2023/06/05 05:57:41;;;;;;;20.08;12.25;;;15.40;74.10;;;;;;5039661;28;20128;-72
2023/06/05 06:00:12;;;;;;;18.05;11.55;;;15.00;76.10;;;;;;5034839;28;20033;-73
2023/06/05 06:02:38;;;;;;;18.73;11.48;;;14.80;76.60;;;;;;5037863;28;20127;-73
2023/06/05 06:05:05;;;;;;;16.88;12.68;;;14.70;76.30;;;;;;5037615;28;20439;-74
2023/06/05 06:07:31;;;;;;;17.45;11.32;;;14.70;77.60;;;;;;5040486;28;20037;-74
2023/06/05 06:09:58;;;;;;;18.45;12.77;;;14.80;77.00;;;;;;5038789;28;20021;-74
2023/06/05 06:12:24;;;;;;;18.67;12.10;;;14.90;76.90;;;;;;5029554;28;20394;-74
2023/06/05 06:14:50;;;;;;;17.92;12.85;;;14.90;75.90;;;;;;5042869;28;20026;-73
2023/06/05 06:17:16;;;;;;;16.65;12.15;;;14.80;76.60;;;;;;5037277;28;20036;-74
2023/06/05 06:19:42;;;;;;;16.80;12.15;;;15.00;76.00;;;;;;5036236;28;20029;-73
2023/06/05 06:22:11;;;;;;;18.95;12.75;;;14.80;75.70;;;;;;5044975;28;20287;-73
2023/06/05 06:24:41;;;;;;;17.20;12.73;;;14.90;76.50;;;;;;5045979;28;20047;-74
2023/06/05 06:27:09;;;;;;;18.48;12.48;;;15.00;75.70;;;;;;5042255;28;20112;-73
2023/06/05 06:29:34;;;;;;;15.55;11.70;;;15.00;75.50;;;;;;5044325;28;20176;-73
2023/06/05 06:32:00;;;;;;;17.80;11.38;;;14.90;75.80;;;;;;5038180;28;20036;-73
2023/06/05 06:34:26;;;;;;;17.88;11.80;;;15.20;75.80;;;;;;5044517;28;20036;-74
2023/06/05 06:36:52;;;;;;;17.10;11.82;;;15.10;74.90;;;;;;5043890;28;20494;-73
2023/06/05 06:39:18;;;;;;;16.60;11.07;;;15.10;75.00;;;;;;5046774;28;20443;-73
2023/06/05 06:41:44;;;;;;;19.25;11.50;;;15.10;75.30;;;;;;5041071;28;20116;-73
2023/06/05 06:44:10;;;;;;;18.58;12.43;;;15.50;74.60;;;;;;5040612;28;20042;-74
2023/06/05 06:46:36;;;;;;;15.70;10.60;;;15.50;73.70;;;;;;5032930;28;20203;-74
2023/06/05 06:49:02;;;;;;;16.70;11.05;;;15.60;73.60;;;;;;5047849;28;20421;-74
2023/06/05 06:51:28;;;;;;;14.88;10.93;;;15.80;73.40;;;;;;5045173;28;20033;-74
2023/06/05 06:53:54;;;;;;;19.10;11.52;;;16.10;72.60;;;;;;5040095;28;20036;-74
2023/06/05 06:56:20;;;;;;;16.92;11.95;;;16.20;71.20;;;;;;5045592;28;20029;-73
2023/06/05 06:58:45;;;;;;;16.85;11.40;;;16.10;71.40;;;;;;5044848;28;20017;-73
2023/06/05 07:01:12;;;;;;;16.40;11.20;;;16.10;71.90;;;;;;5041406;28;20733;-74
2023/06/05 07:03:40;;;;;;;15.63;10.73;;;16.10;71.30;;;;;;5040957;28;20064;-74
2023/06/05 07:06:06;;;;;;;16.35;11.18;;;16.30;71.20;;;;;;5043481;28;20117;-74
2023/06/05 07:08:33;;;;;;;18.35;11.23;;;16.40;70.60;;;;;;5042616;28;20480;-74
2023/06/05 07:10:58;;;;;;;16.00;10.85;;;16.20;69.80;;;;;;5043792;28;20028;-74
2023/06/05 07:13:24;;;;;;;18.42;13.43;;;16.30;70.30;;;;;;5039520;28;20041;-74
2023/06/05 07:15:51;;;;;;;20.17;15.95;;;16.30;70.60;;;;;;5044455;28;20107;-74
2023/06/05 07:18:19;;;;;;;24.83;17.70;;;16.50;69.60;;;;;;5042742;28;20029;-74
2023/06/05 07:20:45;;;;;;;17.67;11.25;;;16.20;69.80;;;;;;5041704;28;20064;-74
2023/06/05 07:23:10;;;;;;;17.83;11.82;;;16.50;69.60;;;;;;5045367;28;20179;-74
2023/06/05 07:25:37;;;;;;;18.15;11.40;;;16.60;68.70;;;;;;5044540;28;20033;-74
2023/06/05 07:28:08;;;;;;;14.18;10.30;;;16.70;69.00;;;;;;5036196;28;20052;-74
2023/06/05 07:30:34;;;;;;;15.93;11.02;;;16.70;68.40;;;;;;5046963;28;20465;-72
2023/06/05 07:33:00;;;;;;;17.55;10.68;;;16.60;68.40;;;;;;5042666;28;20026;-73
2023/06/05 07:35:25;;;;;;;16.52;10.68;;;16.70;67.70;;;;;;5043041;28;20028;-73
2023/06/05 07:37:51;;;;;;;17.83;10.68;;;16.80;68.20;;;;;;5037968;28;20043;-74
2023/06/05 07:40:19;;;;;;;16.63;10.23;;;16.60;68.70;;;;;;5039813;28;20464;-74
2023/06/05 07:42:45;;;;;;;15.80;10.93;;;16.70;68.30;;;;;;5039664;28;20033;-74
2023/06/05 07:45:10;;;;;;;14.65;10.23;;;17.00;68.70;;;;;;5035553;28;20052;-76
2023/06/05 07:47:36;;;;;;;13.73;10.07;;;17.10;67.30;;;;;;5041755;28;20473;-75
2023/06/05 07:50:06;;;;;;;16.50;10.57;;;17.20;66.40;;;;;;5032093;28;20036;-76
2023/06/05 07:52:32;;;;;;;18.75;10.85;;;17.30;66.70;;;;;;5039580;28;20139;-76
2023/06/05 07:54:58;;;;;;;14.85;10.25;;;17.30;67.00;;;;;;5045506;28;20098;-75
2023/06/05 07:57:24;;;;;;;14.85;9.55;;;17.40;67.30;;;;;;5041483;28;20448;-76
2023/06/05 07:59:50;;;;;;;16.00;9.45;;;17.70;67.10;;;;;;5045347;28;20029;-76
2023/06/05 08:02:19;;;;;;;16.30;10.43;;;18.00;65.60;;;;;;5045059;28;20033;-75
2023/06/05 08:04:46;;;;;;;16.83;9.95;;;17.80;66.60;;;;;;5043008;28;20840;-75
2023/06/05 08:07:12;;;;;;;15.65;9.23;;;18.00;66.40;;;;;;5042055;28;20083;-74
2023/06/05 08:09:38;;;;;;;14.63;9.73;;;18.30;65.70;;;;;;5038093;28;20025;-74
2023/06/05 08:12:05;;;;;;;15.23;10.68;;;18.30;64.60;;;;;;5036902;28;20490;-75
2023/06/05 08:14:31;;;;;;;13.45;9.40;;;18.30;64.50;;;;;;5045347;28;20032;-76
2023/06/05 08:16:57;;;;;;;15.27;9.80;;;18.20;64.70;;;;;;5045112;28;20489;-75
2023/06/05 08:19:23;;;;;;;15.70;10.88;;;18.30;64.70;;;;;;5041623;28;20117;-74
2023/06/05 08:21:53;;;;;;;17.30;10.32;;;18.30;63.60;;;;;;5041325;28;20049;-74
2023/06/05 08:24:20;;;;;;;13.05;9.57;;;18.20;64.80;;;;;;5038461;28;20849;-74
2023/06/05 08:26:45;;;;;;;14.38;8.73;;;18.30;65.00;;;;;;5036482;28;20099;-74
2023/06/05 08:29:12;;;;;;;13.88;9.98;;;18.60;64.40;;;;;;5038126;28;20029;-76
2023/06/05 08:31:37;;;;;;;14.40;9.18;;;18.70;62.70;;;;;;5041069;28;20033;-76
2023/06/05 08:34:04;;;;;;;13.52;9.88;;;18.70;62.10;;;;;;5043025;28;20090;-75
2023/06/05 08:36:32;;;;;;;14.13;9.50;;;18.70;63.00;;;;;;5037342;28;20090;-75
2023/06/05 08:39:01;;;;;;;16.42;10.05;;;18.60;62.20;;;;;;5039898;28;20026;-75
2023/06/05 08:41:30;;;;;;;12.23;9.25;;;18.60;62.60;;;;;;5035120;28;20150;-74
2023/06/05 08:43:56;;;;;;;12.45;9.52;;;18.90;62.30;;;;;;5040135;28;20397;-74
2023/06/05 08:46:22;;;;;;;11.60;8.77;;;19.10;61.70;;;;;;5041614;28;20041;-73
2023/06/05 08:48:53;;;;;;;13.27;9.10;;;19.20;62.20;;;;;;5040198;28;20024;-75
2023/06/05 08:51:20;;;;;;;12.75;8.85;;;19.30;60.20;;;;;;5032518;28;20061;-75
2023/06/05 08:54:01;;;;;;;13.35;9.85;;;19.30;60.70;;;;;;5042180;28;20402;-74
2023/06/05 08:56:27;;;;;;;12.25;9.35;;;19.20;60.50;;;;;;5031884;28;20099;-74
2023/06/05 08:58:54;;;;;;;13.68;9.30;;;19.20;60.40;;;;;;5037988;28;20025;-75
2023/06/05 09:01:19;;;;;;;12.77;9.13;;;19.50;60.30;;;;;;5036574;28;20558;-76
2023/06/05 09:03:45;;;;;;;14.75;8.73;;;19.60;60.60;;;;;;5040183;28;20044;-75
2023/06/05 09:06:11;;;;;;;13.45;8.75;;;19.50;59.70;;;;;;5038154;28;20064;-76
2023/06/05 09:08:38;;;;;;;13.27;9.60;;;19.50;58.90;;;;;;5035991;28;20020;-77
2023/06/05 09:11:39;;;;;;;12.77;8.68;;;19.40;60.50;;;;;;5040601;28;20029;-76
2023/06/05 09:14:05;;;;;;;17.02;9.10;;;19.80;59.10;;;;;;5014100;28;20053;-76
2023/06/05 09:16:37;;;;;;;14.48;8.73;;;19.70;59.20;;;;;;5034440;28;20044;-76
2023/06/05 09:19:04;;;;;;;13.20;9.18;;;19.80;59.50;;;;;;5038250;28;20104;-75
2023/06/05 09:21:31;;;;;;;11.13;8.60;;;20.00;58.10;;;;;;5032341;28;20064;-77
2023/06/05 09:24:16;;;;;;;17.23;9.48;;;19.90;59.30;;;;;;5041667;28;20033;-76
2023/06/05 09:26:57;;;;;;;15.32;9.35;;;20.30;57.30;;;;;;5038969;28;20040;-75
2023/06/05 09:29:27;;;;;;;13.20;8.57;;;19.60;57.90;;;;;;5035289;28;20025;-74
2023/06/05 09:31:59;;;;;;;12.15;8.20;;;20.10;58.90;;;;;;5039853;28;20029;-73
2023/06/05 09:34:28;;;;;;;13.18;8.23;;;20.60;57.90;;;;;;5038431;28;20043;-74
2023/06/05 09:36:55;;;;;;;12.57;9.27;;;20.40;58.20;;;;;;5038680;28;20144;-74
2023/06/05 09:39:21;;;;;;;14.50;9.25;;;20.50;56.80;;;;;;5039950;28;20059;-74
2023/06/05 09:41:49;;;;;;;13.57;8.60;;;20.40;56.60;;;;;;5043482;28;20036;-75
2023/06/05 09:44:15;;;;;;;13.75;8.88;;;20.10;56.40;;;;;;5040093;28;20029;-75
2023/06/05 09:46:51;;;;;;;12.50;8.18;;;20.10;57.40;;;;;;5039375;28;20042;-77
2023/06/05 09:49:18;;;;;;;12.90;8.55;;;20.30;56.30;;;;;;5043917;28;20036;-75
2023/06/05 09:51:44;;;;;;;13.15;7.85;;;20.40;57.30;;;;;;5035750;28;20055;-74
2023/06/05 09:54:12;;;;;;;10.65;8.20;;;20.70;56.10;;;;;;5042194;28;20457;-74
2023/06/05 09:56:41;;;;;;;12.85;8.10;;;20.60;55.60;;;;;;5041121;28;20049;-74
2023/06/05 09:59:08;;;;;;;11.85;8.75;;;20.50;56.50;;;;;;5043597;28;20061;-74
2023/06/05 10:01:36;;;;;;;13.05;8.90;;;20.50;56.90;;;;;;5043110;28;20836;-75
2023/06/05 10:04:06;;;;;;;12.57;8.93;;;20.40;56.50;;;;;;5042876;28;20033;-76
2023/06/05 10:06:33;;;;;;;12.20;8.20;;;20.50;56.50;;;;;;5043384;28;20059;-76
2023/06/05 10:09:00;;;;;;;12.85;7.90;;;20.60;56.50;;;;;;5039491;28;20031;-75
2023/06/05 10:11:26;;;;;;;13.70;8.98;;;20.70;55.80;;;;;;5033507;28;20060;-75
2023/06/05 10:13:53;;;;;;;13.52;8.40;;;20.90;55.50;;;;;;5048582;28;20494;-74
2023/06/05 10:16:20;;;;;;;16.77;8.25;;;20.90;54.80;;;;;;5044203;28;20040;-76
2023/06/05 10:18:47;;;;;;;10.88;8.40;;;21.00;54.30;;;;;;5042850;28;20029;-74
2023/06/05 10:21:17;;;;;;;11.50;8.23;;;20.50;54.90;;;;;;5041845;28;20037;-74
2023/06/05 10:23:47;;;;;;;13.57;8.80;;;20.60;55.70;;;;;;5032344;28;20056;-74
2023/06/05 10:26:39;;;;;;;14.10;9.15;;;20.70;55.30;;;;;;5041832;28;20112;-74
2023/06/05 10:29:43;;;;;;;11.98;8.25;;;20.70;54.90;;;;;;5041079;28;20780;-76
2023/06/05 10:32:48;;;;;;;12.45;7.00;;;20.60;55.20;;;;;;5046883;28;20057;-75
2023/06/05 10:35:33;;;;;;;12.02;7.93;;;21.00;55.30;;;;;;5053090;28;20033;-74
2023/06/05 10:37:59;;;;;;;;;;;21.00;53.30;;;;;;5048219;28;20050;-77
2023/06/05 10:40:26;;;;;;;11.93;7.13;;;20.90;53.50;;;;;;5059129;28;19958;-75
2023/06/05 10:42:51;;;;;;;11.23;7.43;;;21.20;53.30;;;;;;5041592;28;20465;-77
2023/06/05 10:45:32;;;;;;;11.55;7.65;;;21.50;53.00;;;;;;5033489;28;20102;-76
2023/06/05 10:47:58;;;;;;;13.25;8.20;;;21.60;52.90;;;;;;5042082;28;20029;-77
2023/06/05 10:50:26;;;;;;;12.77;8.77;;;21.30;53.20;;;;;;5038628;28;20495;-78
2023/06/05 10:52:53;;;;;;;12.75;8.75;;;21.60;53.20;;;;;;5045516;28;20044;-77
2023/06/05 10:55:21;;;;;;;12.90;7.55;;;21.80;53.90;;;;;;5037020;28;20065;-77
2023/06/05 10:58:02;;;;;;;11.63;6.45;;;22.10;51.10;;;;;;5046641;28;20083;-75
2023/06/05 11:00:28;;;;;;;11.70;6.88;;;22.60;50.80;;;;;;5041228;28;20061;-76
2023/06/05 11:02:54;;;;;;;12.98;7.20;;;22.40;51.50;;;;;;5040627;28;20032;-76
2023/06/05 11:05:20;;;;;;;9.68;8.35;;;22.40;52.20;;;;;;5042063;28;20378;-75
2023/06/05 11:07:46;;;;;;;12.88;6.95;;;22.70;52.90;;;;;;5040093;28;20029;-76
2023/06/05 11:10:18;;;;;;;12.25;7.97;;;22.70;49.60;;;;;;5037243;28;20108;-76
2023/06/05 11:12:43;;;;;;;15.38;8.55;;;22.30;50.30;;;;;;5042723;28;20454;-75
2023/06/05 11:15:28;;;;;;;13.32;9.30;;;21.80;51.30;;;;;;5032678;28;20115;-76
2023/06/05 11:17:53;;;;;;;;;;;22.20;52.70;;;;;;5041580;28;20037;-75
2023/06/05 11:20:28;;;;;;;15.48;9.80;;;22.30;53.60;;;;;;5045184;28;20455;-75
2023/06/05 11:22:54;;;;;;;14.52;9.30;;;22.50;52.80;;;;;;5037982;28;20034;-75
2023/06/05 11:25:30;;;;;;;12.50;8.73;;;22.60;51.40;;;;;;5042184;28;20051;-75
2023/06/05 11:27:59;;;;;;;13.35;9.48;;;22.50;52.80;;;;;;5033537;28;20148;-76
2023/06/05 11:30:31;;;;;;;12.57;9.30;;;22.90;51.70;;;;;;5032896;28;20038;-76
2023/06/05 11:33:05;;;;;;;16.45;10.00;;;22.70;51.40;;;;;;5039269;28;20029;-75
2023/06/05 11:35:32;;;;;;;15.77;9.77;;;22.70;51.70;;;;;;5041870;28;20554;-75
2023/06/05 11:38:14;;;;;;;16.95;10.00;;;22.40;51.90;;;;;;5044922;28;20112;-76
2023/06/05 11:40:41;;;;;;;14.43;10.15;;;22.20;52.50;;;;;;5041734;28;20029;-75
2023/06/05 11:43:12;;;;;;;18.70;9.98;;;22.50;52.90;;;;;;5044236;28;20072;-76
2023/06/05 11:45:39;;;;;;;12.25;8.52;;;22.60;53.00;;;;;;5037344;28;20039;-76
2023/06/05 11:48:06;;;;;;;11.50;8.65;;;22.40;50.90;;;;;;5043163;28;20053;-75
2023/06/05 11:50:32;;;;;;;15.43;9.38;;;22.30;52.90;;;;;;5042646;28;20833;-75
2023/06/05 11:53:08;;;;;;;15.02;9.93;;;22.90;52.50;;;;;;5033202;28;20033;-76
2023/06/05 11:55:54;;;;;;;13.32;10.15;;;23.10;51.80;;;;;;5040462;28;20064;-75
2023/06/05 11:58:29;;;;;;;16.60;10.73;;;23.20;51.10;;;;;;5035516;28;20033;-75
2023/06/05 12:01:21;;;;;;;16.13;10.27;;;23.10;51.40;;;;;;5042056;28;20025;-75
2023/06/05 12:03:48;;;;;;;13.90;8.93;;;23.40;50.70;;;;;;5035548;28;20159;-75
2023/06/05 12:06:16;;;;;;;12.55;8.43;;;23.20;51.70;;;;;;5035549;28;20435;-75
2023/06/05 12:08:42;;;;;;;15.50;10.85;;;23.30;50.00;;;;;;5044806;28;20457;-75
2023/06/05 12:11:27;;;;;;;12.43;9.02;;;23.00;50.50;;;;;;5035834;28;20059;-75
2023/06/05 12:13:55;;;;;;;18.90;12.30;;;23.20;51.80;;;;;;5034381;28;20057;-76
2023/06/05 12:16:33;;;;;;;14.18;10.50;;;23.00;51.30;;;;;;5041922;28;20076;-76
2023/06/05 12:18:59;;;;;;;15.25;10.05;;;22.90;51.20;;;;;;5037980;28;20371;-76
2023/06/05 12:21:27;;;;;;;13.95;9.38;;;22.70;51.70;;;;;;5030453;28;20390;-76
2023/06/05 12:24:01;;;;;;;20.52;10.38;;;22.90;51.70;;;;;;5034900;28;20039;-76
2023/06/05 12:26:29;;;;;;;14.13;9.57;;;23.00;52.60;;;;;;5035850;28;20424;-76
2023/06/05 12:29:07;;;;;;;16.00;10.80;;;23.50;52.00;;;;;;5041591;28;20020;-76
2023/06/05 12:31:39;;;;;;;13.30;10.20;;;23.50;51.20;;;;;;5040549;28;20040;-76
2023/06/05 12:34:05;;;;;;;16.25;10.98;;;23.60;51.50;;;;;;5042455;28;20064;-76
2023/06/05 12:36:37;;;;;;;15.68;11.50;;;23.50;50.10;;;;;;5040241;28;20060;-76